Terminal Aerodrome Forecast
Issued by NWS Greer, SC

Home | Current Version | Previous Version | Text Only | Print | Product List | Glossary On
Versions: 1 2 3 4 5 6 7 8 9 10 11 12 13 14 15 16 17 18 19 20 21 22 23 24 25
182
FTUS42 KGSP 061735
TAFGSP
TAF
KGSP 061735Z 0618/0718 02007KT P6SM FEW090
     FM062300 05005KT P6SM FEW050 BKN090
     FM070400 02005KT P6SM FEW150
     FM071400 36007KT P6SM FEW250=

USA.gov is the U.S. government's official web portal to all federal, state and local government web resources and services.